Time,TemperatureF,DewpointF,PressureIn,WindDirection,WindDirectionDegrees,WindSpeedMPH,WindSpeedGustMPH,Humidity,HourlyPrecipIn,Conditions,Clouds,dailyrainin,SoftwareType,DateUTC
2013-02-16 00:03:00,58.6,23.9,30.16,ESE,113,3.0,4.0,26,0.00,,,0.00,meteohub,2013-02-16 08:03:00,
2013-02-16 00:08:00,58.8,24.1,30.16,SE,135,2.0,4.0,26,0.00,,,0.00,meteohub,2013-02-16 08:08:00,
2013-02-16 00:13:00,58.8,23.0,30.16,ESE,113,2.0,4.0,25,0.00,,,0.00,meteohub,2013-02-16 08:13:00,
2013-02-16 00:18:00,58.6,23.9,30.16,East,90,4.0,4.0,26,0.00,,,0.00,meteohub,2013-02-16 08:18:00,
2013-02-16 00:23:00,58.6,23.9,30.16,ESE,113,2.0,4.0,26,0.00,,,0.00,meteohub,2013-02-16 08:23:00,
2013-02-16 00:28:00,58.3,24.4,30.16,SE,135,2.0,5.0,27,0.00,,,0.00,meteohub,2013-02-16 08:28:00,
2013-02-16 00:33:00,57.7,24.8,30.16,East,90,2.0,5.0,28,0.00,,,0.00,meteohub,2013-02-16 08:33:00,
2013-02-16 00:38:00,57.4,24.6,30.15,East,90,2.0,5.0,28,0.00,,,0.00,meteohub,2013-02-16 08:38:00,
2013-02-16 00:43:00,57.4,24.6,30.15,East,90,2.0,4.0,28,0.00,,,0.00,meteohub,2013-02-16 08:43:00,
2013-02-16 00:48:00,57.0,25.0,30.15,East,90,2.0,3.0,29,0.00,,,0.00,meteohub,2013-02-16 08:48:00,
2013-02-16 00:53:00,56.1,25.2,30.15,East,90,2.0,3.0,30,0.00,,,0.00,meteohub,2013-02-16 08:53:00,
2013-02-16 00:58:00,55.4,26.1,30.15,East,90,2.0,3.0,32,0.00,,,0.00,meteohub,2013-02-16 08:58:00,
2013-02-16 01:03:00,54.9,25.5,30.15,East,90,0.0,2.0,32,0.00,,,0.00,meteohub,2013-02-16 09:03:00,
2013-02-16 01:08:00,54.7,26.1,30.15,East,90,2.0,2.0,33,0.00,,,0.00,meteohub,2013-02-16 09:08:00,
2013-02-16 01:13:00,54.5,25.2,30.16,East,90,2.0,2.0,32,0.00,,,0.00,meteohub,2013-02-16 09:13:00,
2013-02-16 01:18:00,54.7,24.6,30.15,East,90,2.0,2.0,31,0.00,,,0.00,meteohub,2013-02-16 09:18:00,
2013-02-16 01:23:00,54.9,25.5,30.15,East,90,2.0,3.0,32,0.00,,,0.00,meteohub,2013-02-16 09:23:00,
2013-02-16 01:28:00,54.9,24.8,30.15,East,90,2.0,3.0,31,0.00,,,0.00,meteohub,2013-02-16 09:28:00,
2013-02-16 01:33:00,54.9,24.8,30.14,East,90,1.0,3.0,31,0.00,,,0.00,meteohub,2013-02-16 09:33:00,
2013-02-16 01:38:00,54.5,24.4,30.14,East,90,2.0,3.0,31,0.00,,,0.00,meteohub,2013-02-16 09:38:00,
2013-02-16 01:43:00,54.1,24.1,30.14,East,90,2.0,2.0,31,0.00,,,0.00,meteohub,2013-02-16 09:43:00,
2013-02-16 01:48:00,53.8,24.6,30.14,East,90,2.0,3.0,32,0.00,,,0.00,meteohub,2013-02-16 09:48:00,
2013-02-16 01:53:00,53.6,25.2,30.14,East,90,1.0,3.0,33,0.00,,,0.00,meteohub,2013-02-16 09:53:00,
2013-02-16 01:58:00,53.2,24.8,30.14,East,90,2.0,3.0,33,0.00,,,0.00,meteohub,2013-02-16 09:58:00,
2013-02-16 02:03:00,53.4,25.0,30.14,East,90,2.0,2.0,33,0.00,,,0.00,meteohub,2013-02-16 10:03:00,
2013-02-16 02:08:00,53.6,25.2,30.14,NE,45,2.0,2.0,33,0.00,,,0.00,meteohub,2013-02-16 10:08:00,
2013-02-16 02:13:00,53.8,25.3,30.14,NE,45,2.0,3.0,33,0.00,,,0.00,meteohub,2013-02-16 10:13:00,
2013-02-16 02:18:00,54.0,25.5,30.14,NE,45,2.0,3.0,33,0.00,,,0.00,meteohub,2013-02-16 10:18:00,
2013-02-16 02:23:00,53.8,26.1,30.13,NE,45,2.0,3.0,34,0.00,,,0.00,meteohub,2013-02-16 10:23:00,
2013-02-16 02:29:00,52.9,26.6,30.14,NE,45,1.0,2.0,36,0.00,,,0.00,meteohub,2013-02-16 10:29:00,
2013-02-16 02:34:00,52.3,26.8,30.13,NE,45,2.0,2.0,37,0.00,,,0.00,meteohub,2013-02-16 10:34:00,
2013-02-16 02:39:00,52.2,27.3,30.14,NE,45,2.0,3.0,38,0.00,,,0.00,meteohub,2013-02-16 10:39:00,
2013-02-16 02:44:00,52.2,27.3,30.14,NE,45,2.0,3.0,38,0.00,,,0.00,meteohub,2013-02-16 10:44:00,
2013-02-16 02:49:00,52.5,27.7,30.13,NE,45,2.0,3.0,38,0.00,,,0.00,meteohub,2013-02-16 10:49:00,
2013-02-16 02:54:00,52.7,28.4,30.14,NE,45,3.0,3.0,39,0.00,,,0.00,meteohub,2013-02-16 10:54:00,
2013-02-16 02:59:00,52.7,28.4,30.14,ENE,68,2.0,3.0,39,0.00,,,0.00,meteohub,2013-02-16 10:59:00,
2013-02-16 03:04:00,52.3,29.3,30.13,East,90,2.0,3.0,41,0.00,,,0.00,meteohub,2013-02-16 11:04:00,
2013-02-16 03:09:00,51.4,29.1,30.14,East,90,2.0,3.0,42,0.00,,,0.00,meteohub,2013-02-16 11:09:00,
2013-02-16 03:14:00,51.1,29.8,30.13,East,90,2.0,3.0,44,0.00,,,0.00,meteohub,2013-02-16 11:14:00,
2013-02-16 03:19:00,51.1,30.6,30.14,NE,45,3.0,3.0,45,0.00,,,0.00,meteohub,2013-02-16 11:19:00,
2013-02-16 03:24:00,51.1,29.8,30.13,East,90,2.0,3.0,44,0.00,,,0.00,meteohub,2013-02-16 11:24:00,
2013-02-16 03:29:00,50.9,30.4,30.13,NE,45,2.0,3.0,45,0.00,,,0.00,meteohub,2013-02-16 11:29:00,
2013-02-16 03:34:00,50.7,30.7,30.13,NE,45,3.0,3.0,46,0.00,,,0.00,meteohub,2013-02-16 11:34:00,
2013-02-16 03:39:00,50.7,30.2,30.13,NE,45,2.0,3.0,45,0.00,,,0.00,meteohub,2013-02-16 11:39:00,
2013-02-16 03:44:00,50.2,30.2,30.13,NE,45,0.0,3.0,46,0.00,,,0.00,meteohub,2013-02-16 11:44:00,
2013-02-16 03:49:00,49.5,30.6,30.13,NE,45,2.0,3.0,48,0.00,,,0.00,meteohub,2013-02-16 11:49:00,
2013-02-16 03:54:00,49.5,31.1,30.13,NE,45,2.0,2.0,49,0.00,,,0.00,meteohub,2013-02-16 11:54:00,
2013-02-16 03:59:00,49.5,31.1,30.13,East,90,1.0,2.0,49,0.00,,,0.00,meteohub,2013-02-16 11:59:00,
2013-02-16 04:04:00,49.1,30.7,30.13,East,90,2.0,3.0,49,0.00,,,0.00,meteohub,2013-02-16 12:04:00,
2013-02-16 04:09:00,48.9,31.1,30.13,East,90,2.0,3.0,50,0.00,,,0.00,meteohub,2013-02-16 12:09:00,
2013-02-16 04:14:00,48.9,30.6,30.13,East,90,2.0,3.0,49,0.00,,,0.00,meteohub,2013-02-16 12:14:00,
2013-02-16 04:19:00,48.9,30.0,30.14,NE,45,2.0,2.0,48,0.00,,,0.00,meteohub,2013-02-16 12:19:00,
2013-02-16 04:24:00,48.9,30.6,30.13,NE,45,2.0,2.0,49,0.00,,,0.00,meteohub,2013-02-16 12:24:00,
2013-02-16 04:29:00,49.1,30.2,30.13,East,90,2.0,2.0,48,0.00,,,0.00,meteohub,2013-02-16 12:29:00,
2013-02-16 04:34:00,49.3,30.4,30.13,East,90,3.0,4.0,48,0.00,,,0.00,meteohub,2013-02-16 12:34:00,
2013-02-16 04:39:00,49.1,30.7,30.13,East,90,3.0,4.0,49,0.00,,,0.00,meteohub,2013-02-16 12:39:00,
2013-02-16 04:44:00,48.9,30.6,30.13,East,90,3.0,4.0,49,0.00,,,0.00,meteohub,2013-02-16 12:44:00,
2013-02-16 04:49:00,48.6,30.7,30.14,East,90,3.0,4.0,50,0.00,,,0.00,meteohub,2013-02-16 12:49:00,
2013-02-16 04:54:00,48.4,30.6,30.13,East,90,2.0,3.0,50,0.00,,,0.00,meteohub,2013-02-16 12:54:00,
2013-02-16 04:59:00,47.8,30.6,30.13,East,90,2.0,4.0,51,0.00,,,0.00,meteohub,2013-02-16 12:59:00,
2013-02-16 05:04:00,48.0,30.2,30.14,East,90,2.0,4.0,50,0.00,,,0.00,meteohub,2013-02-16 13:04:00,
2013-02-16 05:09:00,47.8,30.6,30.13,East,90,3.0,3.0,51,0.00,,,0.00,meteohub,2013-02-16 13:09:00,
2013-02-16 05:14:00,48.0,29.8,30.13,East,90,3.0,3.0,49,0.00,,,0.00,meteohub,2013-02-16 13:14:00,
2013-02-16 05:19:00,48.0,30.2,30.14,East,90,2.0,3.0,50,0.00,,,0.00,meteohub,2013-02-16 13:19:00,
2013-02-16 05:24:00,47.5,29.8,30.13,East,90,1.0,4.0,50,0.00,,,0.00,meteohub,2013-02-16 13:24:00,
2013-02-16 05:29:00,46.9,30.7,30.14,East,90,2.0,4.0,53,0.00,,,0.00,meteohub,2013-02-16 13:29:00,
2013-02-16 05:34:00,46.8,30.0,30.14,East,90,2.0,3.0,52,0.00,,,0.00,meteohub,2013-02-16 13:34:00,
2013-02-16 05:39:00,47.1,29.8,30.14,NE,45,3.0,3.0,51,0.00,,,0.00,meteohub,2013-02-16 13:39:00,
2013-02-16 05:45:00,48.2,30.0,30.13,NE,45,2.0,3.0,49,0.00,,,0.00,meteohub,2013-02-16 13:45:00,
2013-02-16 05:50:00,48.0,29.8,30.14,NE,45,0.0,3.0,49,0.00,,,0.00,meteohub,2013-02-16 13:50:00,
2013-02-16 05:55:00,48.0,30.2,30.14,NE,45,3.0,3.0,50,0.00,,,0.00,meteohub,2013-02-16 13:55:00,
2013-02-16 06:00:00,48.0,30.2,30.14,NE,45,2.0,3.0,50,0.00,,,0.00,meteohub,2013-02-16 14:00:00,
2013-02-16 06:05:00,48.0,30.2,30.14,NE,45,2.0,3.0,50,0.00,,,0.00,meteohub,2013-02-16 14:05:00,
2013-02-16 06:10:00,48.0,30.2,30.14,NE,45,2.0,3.0,50,0.00,,,0.00,meteohub,2013-02-16 14:10:00,
2013-02-16 06:15:00,48.2,30.4,30.14,NE,45,2.0,3.0,50,0.00,,,0.00,meteohub,2013-02-16 14:15:00,
2013-02-16 06:20:00,48.2,30.4,30.14,NE,45,2.0,3.0,50,0.00,,,0.00,meteohub,2013-02-16 14:20:00,
2013-02-16 06:25:00,47.7,30.0,30.14,ENE,68,3.0,3.0,50,0.00,,,0.00,meteohub,2013-02-16 14:25:00,
2013-02-16 06:30:00,47.5,30.2,30.14,ENE,68,2.0,3.0,51,0.00,,,0.00,meteohub,2013-02-16 14:30:00,
2013-02-16 06:35:00,46.9,29.8,30.15,ENE,68,0.0,3.0,51,0.00,,,0.00,meteohub,2013-02-16 14:35:00,
2013-02-16 06:40:00,46.8,30.6,30.15,ENE,68,3.0,3.0,53,0.00,,,0.00,meteohub,2013-02-16 14:40:00,
2013-02-16 06:45:00,46.9,30.2,30.15,East,90,2.0,3.0,52,0.00,,,0.00,meteohub,2013-02-16 14:45:00,
2013-02-16 06:50:00,46.9,30.7,30.14,East,90,3.0,3.0,53,0.00,,,0.00,meteohub,2013-02-16 14:50:00,
2013-02-16 06:55:00,46.9,30.7,30.14,East,90,0.0,3.0,53,0.00,,,0.00,meteohub,2013-02-16 14:55:00,
2013-02-16 07:00:00,46.8,30.6,30.15,East,90,0.0,3.0,53,0.00,,,0.00,meteohub,2013-02-16 15:00:00,
2013-02-16 07:05:00,46.8,30.9,30.15,East,90,1.0,3.0,54,0.00,,,0.00,meteohub,2013-02-16 15:05:00,
2013-02-16 07:10:00,49.5,32.5,30.15,East,90,2.0,2.0,52,0.00,,,0.00,meteohub,2013-02-16 15:10:00,
2013-02-16 07:15:00,53.4,32.5,30.15,NE,45,3.0,3.0,45,0.00,,,0.00,meteohub,2013-02-16 15:15:00,
2013-02-16 07:20:00,55.4,30.9,30.15,NE,45,2.0,2.0,39,0.00,,,0.00,meteohub,2013-02-16 15:20:00,
2013-02-16 07:25:00,58.3,32.2,30.15,NE,45,2.0,3.0,37,0.00,,,0.00,meteohub,2013-02-16 15:25:00,
2013-02-16 07:30:00,60.4,30.4,30.15,NE,45,2.0,3.0,32,0.00,,,0.00,meteohub,2013-02-16 15:30:00,
2013-02-16 07:35:00,62.6,30.7,30.16,NE,45,1.0,3.0,30,0.00,,,0.00,meteohub,2013-02-16 15:35:00,
2013-02-16 07:40:00,63.3,30.6,30.16,NE,45,2.0,3.0,29,0.00,,,0.00,meteohub,2013-02-16 15:40:00,
2013-02-16 07:45:00,64.4,31.5,30.16,NE,45,2.0,3.0,29,0.00,,,0.00,meteohub,2013-02-16 15:45:00,
2013-02-16 07:50:00,65.8,31.8,30.16,NE,45,2.0,3.0,28,0.00,,,0.00,meteohub,2013-02-16 15:50:00,
2013-02-16 07:55:00,66.2,32.2,30.16,NE,45,2.0,3.0,28,0.00,,,0.00,meteohub,2013-02-16 15:55:00,
2013-02-16 08:00:00,67.1,32.0,30.16,NE,45,2.0,3.0,27,0.00,,,0.00,meteohub,2013-02-16 16:00:00,
2013-02-16 08:05:00,67.8,31.6,30.16,NE,45,4.0,4.0,26,0.00,,,0.00,meteohub,2013-02-16 16:05:00,
2013-02-16 08:10:00,68.7,32.4,30.16,East,90,3.0,4.0,26,0.00,,,0.00,meteohub,2013-02-16 16:10:00,
2013-02-16 08:15:00,68.0,32.7,30.16,East,90,2.0,4.0,27,0.00,,,0.00,meteohub,2013-02-16 16:15:00,
2013-02-16 08:20:00,67.8,33.4,30.16,East,90,2.0,4.0,28,0.00,,,0.00,meteohub,2013-02-16 16:20:00,
2013-02-16 08:25:00,69.4,34.9,30.16,East,90,2.0,4.0,28,0.00,,,0.00,meteohub,2013-02-16 16:25:00,
2013-02-16 08:30:00,69.3,32.9,30.16,East,90,2.0,3.0,26,0.00,,,0.00,meteohub,2013-02-16 16:30:00,
2013-02-16 08:35:00,69.4,31.1,30.16,East,90,4.0,4.0,24,0.00,,,0.00,meteohub,2013-02-16 16:35:00,
2013-02-16 08:40:00,69.1,27.5,30.16,East,90,3.0,4.0,21,0.00,,,0.00,meteohub,2013-02-16 16:40:00,
2013-02-16 08:45:00,69.8,27.0,30.16,East,90,4.0,5.0,20,0.00,,,0.00,meteohub,2013-02-16 16:45:00,
2013-02-16 08:50:00,70.0,28.2,30.16,SE,135,4.0,5.0,21,0.00,,,0.00,meteohub,2013-02-16 16:50:00,
2013-02-16 08:56:00,70.7,26.4,30.16,East,90,4.0,4.0,19,0.00,,,0.00,meteohub,2013-02-16 16:56:00,
2013-02-16 09:01:00,71.4,25.7,30.16,East,90,2.0,4.0,18,0.00,,,0.00,meteohub,2013-02-16 17:01:00,
2013-02-16 09:06:00,72.1,25.0,30.16,NE,45,2.0,4.0,17,0.00,,,0.00,meteohub,2013-02-16 17:06:00,
2013-02-16 09:11:00,72.7,25.3,30.16,ESE,113,2.0,4.0,17,0.00,,,0.00,meteohub,2013-02-16 17:11:00,
2013-02-16 09:16:00,72.9,24.1,30.16,East,90,3.0,4.0,16,0.00,,,0.00,meteohub,2013-02-16 17:16:00,
2013-02-16 09:21:00,72.7,20.7,30.16,ESE,113,4.0,4.0,14,0.00,,,0.00,meteohub,2013-02-16 17:21:00,
2013-02-16 09:26:00,72.7,22.3,30.16,ESE,113,2.0,5.0,15,0.00,,,0.00,meteohub,2013-02-16 17:26:00,
2013-02-16 09:31:00,73.9,23.4,30.16,SE,135,2.0,5.0,15,0.00,,,0.00,meteohub,2013-02-16 17:31:00,
2013-02-16 09:36:00,76.3,21.7,30.15,SE,135,2.0,5.0,13,0.00,,,0.00,meteohub,2013-02-16 17:36:00,
2013-02-16 09:41:00,77.4,16.5,30.16,South,180,3.0,4.0,10,0.00,,,0.00,meteohub,2013-02-16 17:41:00,
2013-02-16 09:46:00,78.1,78.1,30.16,SE,135,2.0,4.0,0,0.00,,,0.00,meteohub,2013-02-16 17:46:00,
2013-02-16 09:51:00,77.7,77.7,30.15,NE,45,4.0,4.0,0,0.00,,,0.00,meteohub,2013-02-16 17:51:00,
2013-02-16 09:56:00,78.1,78.1,30.16,ESE,113,3.0,4.0,0,0.00,,,0.00,meteohub,2013-02-16 17:56:00,
2013-02-16 10:01:00,78.4,78.4,30.16,NNE,23,2.0,4.0,0,0.00,,,0.00,meteohub,2013-02-16 18:01:00,
2013-02-16 10:07:00,78.8,78.8,30.16,North,0,2.0,4.0,0,0.00,,,0.00,meteohub,2013-02-16 18:07:00,
2013-02-16 10:12:00,79.2,79.2,30.16,NNE,23,3.0,4.0,0,0.00,,,0.00,meteohub,2013-02-16 18:12:00,
2013-02-16 10:17:00,79.2,79.2,30.16,NE,45,1.0,4.0,0,0.00,,,0.00,meteohub,2013-02-16 18:17:00,
2013-02-16 10:22:00,79.7,79.7,30.15,North,0,3.0,4.0,0,0.00,,,0.00,meteohub,2013-02-16 18:22:00,
2013-02-16 10:27:00,80.2,80.2,30.15,East,90,2.0,4.0,0,0.00,,,0.00,meteohub,2013-02-16 18:27:00,
2013-02-16 10:32:00,80.4,80.4,30.15,NE,45,2.0,4.0,0,0.00,,,0.00,meteohub,2013-02-16 18:32:00,
2013-02-16 10:37:00,81.1,81.1,30.15,North,0,3.0,4.0,0,0.00,,,0.00,meteohub,2013-02-16 18:37:00,
2013-02-16 10:42:00,81.1,81.1,30.15,WNW,293,1.0,4.0,0,0.00,,,0.00,meteohub,2013-02-16 18:42:00,
2013-02-16 10:47:00,82.0,82.0,30.15,NE,45,3.0,4.0,0,0.00,,,0.00,meteohub,2013-02-16 18:47:00,
2013-02-16 10:52:00,82.8,82.8,30.15,North,0,2.0,4.0,0,0.00,,,0.00,meteohub,2013-02-16 18:52:00,
2013-02-16 10:57:00,84.0,84.0,30.14,West,270,3.0,4.0,0,0.00,,,0.00,meteohub,2013-02-16 18:57:00,
2013-02-16 11:01:00,84.6,84.6,30.14,South,180,3.0,4.0,0,0.00,,,0.00,meteohub,2013-02-16 19:01:00,
2013-02-16 11:06:00,86.0,86.0,30.14,NE,45,3.0,4.0,0,0.00,,,0.00,meteohub,2013-02-16 19:06:00,
2013-02-16 11:11:00,86.4,86.4,30.14,NE,45,3.0,4.0,0,0.00,,,0.00,meteohub,2013-02-16 19:11:00,
2013-02-16 11:17:00,86.7,86.7,30.13,SE,135,3.0,4.0,0,0.00,,,0.00,meteohub,2013-02-16 19:17:00,
2013-02-16 11:22:00,86.2,86.2,30.13,South,180,3.0,4.0,0,0.00,,,0.00,meteohub,2013-02-16 19:22:00,
2013-02-16 11:27:00,85.6,85.6,30.12,North,0,3.0,4.0,0,0.00,,,0.00,meteohub,2013-02-16 19:27:00,
2013-02-16 11:32:00,86.0,86.0,30.12,NNW,338,2.0,6.0,0,0.00,,,0.00,meteohub,2013-02-16 19:32:00,
2013-02-16 11:37:00,87.1,87.1,30.12,West,270,4.0,6.0,0,0.00,,,0.00,meteohub,2013-02-16 19:37:00,
2013-02-16 11:42:00,86.9,86.9,30.12,North,0,5.0,6.0,0,0.00,,,0.00,meteohub,2013-02-16 19:42:00,
2013-02-16 11:47:00,87.1,87.1,30.12,SW,225,2.0,5.0,0,0.00,,,0.00,meteohub,2013-02-16 19:47:00,
2013-02-16 11:52:00,87.6,87.6,30.11,West,270,2.0,5.0,0,0.00,,,0.00,meteohub,2013-02-16 19:52:00,
2013-02-16 11:57:00,87.1,87.1,30.10,South,180,3.0,5.0,0,0.00,,,0.00,meteohub,2013-02-16 19:57:00,
2013-02-16 12:02:00,87.1,87.1,30.10,West,270,4.0,8.0,0,0.00,,,0.00,meteohub,2013-02-16 20:02:00,
2013-02-16 12:07:00,86.9,86.9,30.10,South,180,3.0,8.0,0,0.00,,,0.00,meteohub,2013-02-16 20:07:00,
2013-02-16 12:12:00,87.3,87.3,30.10,West,270,4.0,4.0,0,0.00,,,0.00,meteohub,2013-02-16 20:12:00,
2013-02-16 12:17:00,86.7,86.7,30.09,SE,135,2.0,5.0,0,0.00,,,0.00,meteohub,2013-02-16 20:17:00,
2013-02-16 12:22:00,86.9,86.9,30.09,WSW,248,2.0,5.0,0,0.00,,,0.00,meteohub,2013-02-16 20:22:00,
2013-02-16 12:27:00,87.3,87.3,30.09,NNE,23,3.0,6.0,0,0.00,,,0.00,meteohub,2013-02-16 20:27:00,
2013-02-16 12:32:00,86.4,86.4,30.08,NW,315,4.0,6.0,0,0.00,,,0.00,meteohub,2013-02-16 20:32:00,
2013-02-16 12:37:00,84.4,84.4,30.08,NW,315,10.0,10.0,0,0.00,,,0.00,meteohub,2013-02-16 20:37:00,
2013-02-16 12:42:00,82.8,82.8,30.07,West,270,9.0,11.0,0,0.00,,,0.00,meteohub,2013-02-16 20:42:00,
2013-02-16 12:47:00,82.6,82.6,30.07,West,270,4.0,11.0,0,0.00,,,0.00,meteohub,2013-02-16 20:47:00,
2013-02-16 12:52:00,82.4,82.4,30.07,West,270,8.0,11.0,0,0.00,,,0.00,meteohub,2013-02-16 20:52:00,
2013-02-16 12:57:00,82.6,82.6,30.06,NW,315,6.0,11.0,0,0.00,,,0.00,meteohub,2013-02-16 20:57:00,
2013-02-16 13:02:00,82.6,82.6,30.06,NW,315,6.0,9.0,0,0.00,,,0.00,meteohub,2013-02-16 21:02:00,
2013-02-16 13:07:00,81.7,81.7,30.06,NW,315,9.0,9.0,0,0.00,,,0.00,meteohub,2013-02-16 21:07:00,
2013-02-16 13:12:00,81.0,81.0,30.06,WNW,293,9.0,9.0,0,0.00,,,0.00,meteohub,2013-02-16 21:12:00,
2013-02-16 13:17:00,80.4,80.4,30.06,NW,315,10.0,11.0,0,0.00,,,0.00,meteohub,2013-02-16 21:17:00,
2013-02-16 13:22:00,79.5,79.5,30.06,WNW,293,11.0,12.0,0,0.00,,,0.00,meteohub,2013-02-16 21:22:00,
2013-02-16 13:27:00,79.5,79.5,30.06,NW,315,11.0,12.0,0,0.00,,,0.00,meteohub,2013-02-16 21:27:00,
2013-02-16 13:32:00,79.5,79.5,30.05,WNW,293,8.0,15.0,0,0.00,,,0.00,meteohub,2013-02-16 21:32:00,
2013-02-16 13:37:00,79.3,79.3,30.05,West,270,13.0,15.0,0,0.00,,,0.00,meteohub,2013-02-16 21:37:00,
2013-02-16 13:42:00,79.0,79.0,30.05,WNW,293,10.0,15.0,0,0.00,,,0.00,meteohub,2013-02-16 21:42:00,
2013-02-16 13:47:00,79.0,79.0,30.05,WNW,293,11.0,15.0,0,0.00,,,0.00,meteohub,2013-02-16 21:47:00,
2013-02-16 13:52:00,78.8,78.8,30.04,West,270,11.0,15.0,0,0.00,,,0.00,meteohub,2013-02-16 21:52:00,
2013-02-16 13:57:00,79.0,79.0,30.04,NW,315,8.0,15.0,0,0.00,,,0.00,meteohub,2013-02-16 21:57:00,
2013-02-16 14:02:00,78.8,78.8,30.04,NW,315,9.0,15.0,0,0.00,,,0.00,meteohub,2013-02-16 22:02:00,
2013-02-16 14:07:00,78.8,78.8,30.03,NW,315,9.0,15.0,0,0.00,,,0.00,meteohub,2013-02-16 22:07:00,
2013-02-16 14:12:00,79.2,79.2,30.03,West,270,9.0,12.0,0,0.00,,,0.00,meteohub,2013-02-16 22:12:00,
2013-02-16 14:17:00,79.5,79.5,30.03,NW,315,11.0,12.0,0,0.00,,,0.00,meteohub,2013-02-16 22:17:00,
2013-02-16 14:22:00,80.2,80.2,30.03,NW,315,8.0,12.0,0,0.00,,,0.00,meteohub,2013-02-16 22:22:00,
2013-02-16 14:27:00,80.6,80.6,30.02,NW,315,10.0,12.0,0,0.00,,,0.00,meteohub,2013-02-16 22:27:00,
2013-02-16 14:32:00,81.5,81.5,30.02,NW,315,8.0,12.0,0,0.00,,,0.00,meteohub,2013-02-16 22:32:00,
2013-02-16 14:37:00,82.6,82.6,30.02,WNW,293,8.0,11.0,0,0.00,,,0.00,meteohub,2013-02-16 22:37:00,
2013-02-16 14:42:00,81.9,81.9,30.02,NW,315,9.0,10.0,0,0.00,,,0.00,meteohub,2013-02-16 22:42:00,
2013-02-16 14:47:00,82.4,82.4,30.02,NW,315,5.0,14.0,0,0.00,,,0.00,meteohub,2013-02-16 22:47:00,
2013-02-16 14:52:00,82.9,82.9,30.02,North,0,4.0,14.0,0,0.00,,,0.00,meteohub,2013-02-16 22:52:00,
2013-02-16 14:57:00,82.4,82.4,30.01,NW,315,12.0,12.0,0,0.00,,,0.00,meteohub,2013-02-16 22:57:00,
2013-02-16 15:02:00,81.7,81.7,30.01,NW,315,10.0,12.0,0,0.00,,,0.00,meteohub,2013-02-16 23:02:00,
2013-02-16 15:07:00,81.0,81.0,30.01,NW,315,7.0,14.0,0,0.00,,,0.00,meteohub,2013-02-16 23:07:00,
2013-02-16 15:12:00,81.7,81.7,30.01,NW,315,4.0,14.0,0,0.00,,,0.00,meteohub,2013-02-16 23:12:00,
2013-02-16 15:17:00,81.7,81.7,30.01,NW,315,5.0,14.0,0,0.00,,,0.00,meteohub,2013-02-16 23:17:00,
2013-02-16 15:22:00,81.3,81.3,30.01,West,270,12.0,12.0,0,0.00,,,0.00,meteohub,2013-02-16 23:22:00,
2013-02-16 15:27:00,81.5,81.5,30.01,NW,315,8.0,12.0,0,0.00,,,0.00,meteohub,2013-02-16 23:27:00,
2013-02-16 15:32:00,81.7,81.7,30.01,NW,315,11.0,12.0,0,0.00,,,0.00,meteohub,2013-02-16 23:32:00,
2013-02-16 15:37:00,81.3,81.3,30.01,NW,315,8.0,12.0,0,0.00,,,0.00,meteohub,2013-02-16 23:37:00,
2013-02-16 15:42:00,81.0,81.0,30.01,NW,315,10.0,13.0,0,0.00,,,0.00,meteohub,2013-02-16 23:42:00,
2013-02-16 15:47:00,80.4,80.4,30.01,NW,315,11.0,13.0,0,0.00,,,0.00,meteohub,2013-02-16 23:47:00,
2013-02-16 15:52:00,81.0,81.0,30.01,NW,315,7.0,13.0,0,0.00,,,0.00,meteohub,2013-02-16 23:52:00,
2013-02-16 15:57:00,81.3,81.3,30.01,NW,315,6.0,13.0,0,0.00,,,0.00,meteohub,2013-02-16 23:57:00,
2013-02-16 16:02:00,81.5,81.5,30.00,NW,315,6.0,12.0,0,0.00,,,0.00,meteohub,2013-02-17 00:02:00,
2013-02-16 16:07:00,81.7,81.7,30.01,NW,315,5.0,10.0,0,0.00,,,0.00,meteohub,2013-02-17 00:07:00,
2013-02-16 16:12:00,81.9,81.9,30.00,NW,315,4.0,10.0,0,0.00,,,0.00,meteohub,2013-02-17 00:12:00,
2013-02-16 16:17:00,82.0,82.0,30.00,NW,315,5.0,10.0,0,0.00,,,0.00,meteohub,2013-02-17 00:17:00,
2013-02-16 16:22:00,81.3,81.3,30.00,NW,315,5.0,10.0,0,0.00,,,0.00,meteohub,2013-02-17 00:22:00,
2013-02-16 16:27:00,81.3,81.3,30.00,North,0,4.0,9.0,0,0.00,,,0.00,meteohub,2013-02-17 00:27:00,
2013-02-16 16:32:00,81.5,81.5,30.00,NW,315,4.0,9.0,0,0.00,,,0.00,meteohub,2013-02-17 00:32:00,
2013-02-16 16:37:00,81.5,81.5,30.00,North,0,6.0,8.0,0,0.00,,,0.00,meteohub,2013-02-17 00:37:00,
2013-02-16 16:42:00,81.7,81.7,30.00,NW,315,4.0,8.0,0,0.00,,,0.00,meteohub,2013-02-17 00:42:00,
2013-02-16 16:47:00,82.0,82.0,30.00,North,0,4.0,7.0,0,0.00,,,0.00,meteohub,2013-02-17 00:47:00,
2013-02-16 16:52:00,80.4,80.4,30.00,NNE,23,8.0,8.0,0,0.00,,,0.00,meteohub,2013-02-17 00:52:00,
2013-02-16 16:57:00,79.9,79.9,30.00,North,0,4.0,8.0,0,0.00,,,0.00,meteohub,2013-02-17 00:57:00,
2013-02-16 17:02:00,79.0,79.0,30.00,North,0,4.0,8.0,0,0.00,,,0.00,meteohub,2013-02-17 01:02:00,
2013-02-16 17:07:00,78.1,78.1,29.99,North,0,4.0,8.0,0,0.00,,,0.00,meteohub,2013-02-17 01:07:00,
2013-02-16 17:12:00,76.3,76.3,29.99,North,0,8.0,9.0,0,0.00,,,0.00,meteohub,2013-02-17 01:12:00,
2013-02-16 17:17:00,75.0,75.0,29.99,NE,45,5.0,9.0,0,0.00,,,0.00,meteohub,2013-02-17 01:17:00,
2013-02-16 17:22:00,74.1,74.1,30.00,NE,45,3.0,9.0,0,0.00,,,0.00,meteohub,2013-02-17 01:22:00,
2013-02-16 17:27:00,73.4,73.4,30.00,NW,315,3.0,8.0,0,0.00,,,0.00,meteohub,2013-02-17 01:27:00,
2013-02-16 17:32:00,72.9,72.9,30.00,North,0,6.0,6.0,0,0.00,,,0.00,meteohub,2013-02-17 01:32:00,
2013-02-16 17:37:00,72.1,72.1,30.00,North,0,3.0,6.0,0,0.00,,,0.00,meteohub,2013-02-17 01:37:00,
2013-02-16 17:42:00,71.6,71.6,30.00,North,0,4.0,6.0,0,0.00,,,0.00,meteohub,2013-02-17 01:42:00,
2013-02-16 17:47:00,71.2,71.2,30.00,North,0,3.0,6.0,0,0.00,,,0.00,meteohub,2013-02-17 01:47:00,
2013-02-16 17:52:00,70.7,70.7,30.00,North,0,4.0,5.0,0,0.00,,,0.00,meteohub,2013-02-17 01:52:00,
2013-02-16 17:57:00,70.5,70.5,30.00,North,0,2.0,5.0,0,0.00,,,0.00,meteohub,2013-02-17 01:57:00,
2013-02-16 18:02:00,70.0,10.9,30.00,North,0,2.0,5.0,10,0.00,,,0.00,meteohub,2013-02-17 02:02:00,
2013-02-16 18:07:00,69.4,14.5,30.00,North,0,1.0,5.0,12,0.00,,,0.00,meteohub,2013-02-17 02:07:00,
2013-02-16 18:12:00,68.5,13.8,30.00,North,0,0.0,4.0,12,0.00,,,0.00,meteohub,2013-02-17 02:12:00,
2013-02-16 18:17:00,67.6,15.1,29.99,North,0,0.0,3.0,13,0.00,,,0.00,meteohub,2013-02-17 02:17:00,
2013-02-16 18:22:00,67.1,18.0,30.00,North,0,2.0,2.0,15,0.00,,,0.00,meteohub,2013-02-17 02:22:00,
2013-02-16 18:27:00,67.1,18.0,30.00,North,0,2.0,2.0,15,0.00,,,0.00,meteohub,2013-02-17 02:27:00,
2013-02-16 18:32:00,66.9,17.8,29.99,North,0,2.0,4.0,15,0.00,,,0.00,meteohub,2013-02-17 02:32:00,
2013-02-16 18:37:00,66.7,17.6,30.00,North,0,2.0,4.0,15,0.00,,,0.00,meteohub,2013-02-17 02:37:00,
2013-02-16 18:42:00,66.7,17.6,30.00,North,0,2.0,4.0,15,0.00,,,0.00,meteohub,2013-02-17 02:42:00,
2013-02-16 18:47:00,66.6,15.8,30.00,North,0,2.0,4.0,14,0.00,,,0.00,meteohub,2013-02-17 02:47:00,
2013-02-16 18:52:00,66.4,17.2,30.00,North,0,2.0,4.0,15,0.00,,,0.00,meteohub,2013-02-17 02:52:00,
2013-02-16 18:57:00,65.7,16.7,30.00,North,0,2.0,3.0,15,0.00,,,0.00,meteohub,2013-02-17 02:57:00,
2013-02-16 19:02:00,65.3,16.5,30.00,North,0,0.0,2.0,15,0.00,,,0.00,meteohub,2013-02-17 03:02:00,
2013-02-16 19:07:00,64.9,19.0,30.00,North,0,1.0,2.0,17,0.00,,,0.00,meteohub,2013-02-17 03:07:00,
2013-02-16 19:12:00,64.2,19.8,30.00,North,0,0.0,2.0,18,0.00,,,0.00,meteohub,2013-02-17 03:12:00,
2013-02-16 19:17:00,63.5,20.5,30.00,North,0,0.0,2.0,19,0.00,,,0.00,meteohub,2013-02-17 03:17:00,
2013-02-16 19:22:00,62.6,21.0,30.00,North,0,2.0,2.0,20,0.00,,,0.00,meteohub,2013-02-17 03:22:00,
2013-02-16 19:27:00,62.6,22.1,30.00,North,0,2.0,2.0,21,0.00,,,0.00,meteohub,2013-02-17 03:27:00,
2013-02-16 19:32:00,62.4,21.9,30.00,North,0,0.0,2.0,21,0.00,,,0.00,meteohub,2013-02-17 03:32:00,
2013-02-16 19:37:00,62.2,23.0,30.00,North,0,0.0,2.0,22,0.00,,,0.00,meteohub,2013-02-17 03:37:00,
2013-02-16 19:42:00,61.9,23.7,30.00,North,0,0.0,2.0,23,0.00,,,0.00,meteohub,2013-02-17 03:42:00,
2013-02-16 19:47:00,61.7,23.5,30.00,North,0,1.0,1.0,23,0.00,,,0.00,meteohub,2013-02-17 03:47:00,
2013-02-16 19:52:00,61.2,23.0,30.00,North,0,1.0,2.0,23,0.00,,,0.00,meteohub,2013-02-17 03:52:00,
2013-02-16 19:57:00,60.3,24.3,30.00,North,0,0.0,2.0,25,0.00,,,0.00,meteohub,2013-02-17 03:57:00,
2013-02-16 20:02:00,59.5,24.6,30.00,North,0,0.0,2.0,26,0.00,,,0.00,meteohub,2013-02-17 04:02:00,
2013-02-16 20:07:00,59.4,27.1,30.00,North,0,0.0,1.0,29,0.00,,,0.00,meteohub,2013-02-17 04:07:00,
2013-02-16 20:12:00,59.4,27.9,29.99,North,0,0.0,2.0,30,0.00,,,0.00,meteohub,2013-02-17 04:12:00,
2013-02-16 20:17:00,59.0,27.7,30.00,North,0,0.0,2.0,30,0.00,,,0.00,meteohub,2013-02-17 04:17:00,
2013-02-16 20:22:00,58.5,27.1,30.00,North,0,0.0,2.0,30,0.00,,,0.00,meteohub,2013-02-17 04:22:00,
2013-02-16 20:27:00,58.1,27.7,30.00,North,0,0.0,2.0,31,0.00,,,0.00,meteohub,2013-02-17 04:27:00,
2013-02-16 20:32:00,57.9,28.2,30.00,North,0,0.0,1.0,32,0.00,,,0.00,meteohub,2013-02-17 04:32:00,
2013-02-16 20:37:00,57.6,27.9,30.00,North,0,1.0,0.0,32,0.00,,,0.00,meteohub,2013-02-17 04:37:00,
2013-02-16 20:42:00,57.0,28.2,29.99,North,0,0.0,1.0,33,0.00,,,0.00,meteohub,2013-02-17 04:42:00,
2013-02-16 20:47:00,56.8,29.5,30.00,North,0,1.0,1.0,35,0.00,,,0.00,meteohub,2013-02-17 04:47:00,
2013-02-16 20:52:00,56.5,29.8,30.00,North,0,2.0,2.0,36,0.00,,,0.00,meteohub,2013-02-17 04:52:00,
2013-02-16 20:57:00,56.5,29.8,30.00,North,0,0.0,2.0,36,0.00,,,0.00,meteohub,2013-02-17 04:57:00,
2013-02-16 21:00:00,56.5,30.6,30.00,North,0,0.0,2.0,37,0.00,,,0.00,meteohub,2013-02-17 05:00:00,
2013-02-16 21:05:00,56.5,31.1,30.00,North,0,0.0,2.0,38,0.00,,,0.00,meteohub,2013-02-17 05:05:00,
2013-02-16 21:10:00,55.9,30.7,30.00,North,0,0.0,2.0,38,0.00,,,0.00,meteohub,2013-02-17 05:10:00,
2013-02-16 21:15:00,55.4,30.9,30.00,North,0,0.0,0.0,39,0.00,,,0.00,meteohub,2013-02-17 05:15:00,
2013-02-16 21:20:00,55.0,31.1,30.00,North,0,0.0,0.0,40,0.00,,,0.00,meteohub,2013-02-17 05:20:00,
2013-02-16 21:25:00,54.9,32.2,30.00,North,0,0.0,0.0,42,0.00,,,0.00,meteohub,2013-02-17 05:25:00,
2013-02-16 21:30:00,54.7,32.0,30.00,North,0,0.0,0.0,42,0.00,,,0.00,meteohub,2013-02-17 05:30:00,
2013-02-16 21:35:00,55.2,32.0,30.00,NW,315,2.0,4.0,41,0.00,,,0.00,meteohub,2013-02-17 05:35:00,
2013-02-16 21:40:00,55.6,30.4,30.00,NW,315,2.0,4.0,38,0.00,,,0.00,meteohub,2013-02-17 05:40:00,
2013-02-16 21:45:00,55.4,30.2,30.00,NW,315,0.0,4.0,38,0.00,,,0.00,meteohub,2013-02-17 05:45:00,
2013-02-16 21:50:00,55.2,30.7,30.00,NW,315,1.0,2.0,39,0.00,,,0.00,meteohub,2013-02-17 05:50:00,
2013-02-16 21:56:00,54.7,30.9,30.00,NW,315,0.0,2.0,40,0.00,,,0.00,meteohub,2013-02-17 05:56:00,
2013-02-16 22:01:00,54.7,33.3,30.00,NW,315,1.0,1.0,44,0.00,,,0.00,meteohub,2013-02-17 06:01:00,
2013-02-16 22:06:00,55.2,34.2,30.00,NW,315,2.0,2.0,45,0.00,,,0.00,meteohub,2013-02-17 06:06:00,
2013-02-16 22:11:00,55.6,35.6,30.00,NW,315,1.0,2.0,47,0.00,,,0.00,meteohub,2013-02-17 06:11:00,
2013-02-16 22:16:00,55.6,36.1,29.99,NW,315,0.0,2.0,48,0.00,,,0.00,meteohub,2013-02-17 06:16:00,
2013-02-16 22:21:00,55.0,36.7,30.00,NW,315,0.0,2.0,50,0.00,,,0.00,meteohub,2013-02-17 06:21:00,
2013-02-16 22:26:00,54.3,36.5,30.00,NW,315,0.0,2.0,51,0.00,,,0.00,meteohub,2013-02-17 06:26:00,
2013-02-16 22:31:00,53.6,36.3,29.99,NW,315,0.0,1.0,52,0.00,,,0.00,meteohub,2013-02-17 06:31:00,
2013-02-16 22:36:00,53.6,38.3,29.99,NW,315,0.0,1.0,56,0.00,,,0.00,meteohub,2013-02-17 06:36:00,
2013-02-16 22:41:00,53.4,39.0,30.00,NW,315,2.0,2.0,58,0.00,,,0.00,meteohub,2013-02-17 06:41:00,
2013-02-16 22:46:00,53.6,40.1,29.99,NW,315,1.0,2.0,60,0.00,,,0.00,meteohub,2013-02-17 06:46:00,
2013-02-16 22:51:00,53.6,41.4,29.99,NW,315,0.0,2.0,63,0.00,,,0.00,meteohub,2013-02-17 06:51:00,
2013-02-16 22:56:00,53.4,41.9,29.99,NW,315,0.0,2.0,65,0.00,,,0.00,meteohub,2013-02-17 06:56:00,
2013-02-16 23:01:00,53.1,42.1,29.99,NW,315,0.0,2.0,66,0.00,,,0.00,meteohub,2013-02-17 07:01:00,
2013-02-16 23:06:00,52.7,42.1,30.00,NW,315,0.0,1.0,67,0.00,,,0.00,meteohub,2013-02-17 07:06:00,
2013-02-16 23:11:00,52.2,41.9,29.99,NW,315,0.0,1.0,68,0.00,,,0.00,meteohub,2013-02-17 07:11:00,
2013-02-16 23:16:00,52.0,42.4,29.99,NW,315,0.0,1.0,70,0.00,,,0.00,meteohub,2013-02-17 07:16:00,
2013-02-16 23:21:00,51.8,42.3,29.99,NW,315,2.0,3.0,70,0.00,,,0.00,meteohub,2013-02-17 07:21:00,
2013-02-16 23:26:00,51.3,41.9,29.99,NW,315,2.0,3.0,70,0.00,,,0.00,meteohub,2013-02-17 07:26:00,
2013-02-16 23:31:00,50.9,41.5,29.99,NW,315,0.0,3.0,70,0.00,,,0.00,meteohub,2013-02-17 07:31:00,
2013-02-16 23:36:00,50.5,41.9,29.98,NW,315,0.0,2.0,72,0.00,,,0.00,meteohub,2013-02-17 07:36:00,
2013-02-16 23:41:00,50.2,41.5,29.99,NW,315,0.0,2.0,72,0.00,,,0.00,meteohub,2013-02-17 07:41:00,
2013-02-16 23:46:00,49.6,41.7,29.99,NW,315,0.0,0.0,74,0.00,,,0.00,meteohub,2013-02-17 07:46:00,
2013-02-16 23:51:00,49.1,41.9,29.99,NW,315,2.0,0.0,76,0.00,,,0.00,meteohub,2013-02-17 07:51:00,
2013-02-16 23:56:00,48.6,41.0,29.99,NW,315,2.0,2.0,75,0.00,,,0.00,meteohub,2013-02-17 07:56:00,